Terminal Aerodrome Forecast
Issued by NWS Midland/Odessa, TX

Home | Current Version | Previous Version | Text Only | Print | Product List | Glossary On
Versions: 1 2 3 4 5 6 7 8 9 10 11 12 13 14 15 16 17
863
FTUS44 KMAF 241720
TAFMAF
TAF
KMAF 241720Z 2418/2518 18011KT P6SM BKN250
     FM250300 14016KT P6SM BKN150
     FM250600 09018KT P6SM BKN100
     FM250900 03023G33KT P6SM BKN010
     FM251700 02017G25KT P6SM BKN025=

USA.gov is the U.S. government's official web portal to all federal, state and local government web resources and services.